Time;durP1;ratioP1;P1;durP2;ratioP2;P2;SDS_P1;SDS_P2;PMS_P1;PMS_P2;Temp;Humidity;BMP_temperature;BMP_pressure;BME280_temperature;BME280_humidity;BME280_pressure;Samples;Min_cycle;Max_cycle;Signal;HPM_P1;HPM_P2
2023/04/15 03:02:00;;;;;;;11.13;10.23;;;2.70;99.90;;;;;;5179149;23;20249;-75
2023/04/15 03:04:28;;;;;;;11.53;10.63;;;2.70;99.90;;;;;;4916896;29;20186;-75
2023/04/15 03:06:55;;;;;;;12.83;12.03;;;2.70;99.90;;;;;;4916402;29;20222;-75
2023/04/15 03:09:21;;;;;;;11.00;9.90;;;2.80;99.90;;;;;;4933658;29;20273;-74
2023/04/15 03:11:47;;;;;;;11.33;10.33;;;2.80;99.90;;;;;;4902642;29;20281;-74
2023/04/15 03:14:13;;;;;;;8.60;7.97;;;2.90;99.90;;;;;;4914748;29;20195;-74
2023/04/15 03:16:38;;;;;;;9.63;8.77;;;2.90;99.90;;;;;;4898276;29;20183;-74
2023/04/15 03:19:04;;;;;;;10.67;9.80;;;3.00;99.90;;;;;;4914369;29;20186;-74
2023/04/15 03:21:30;;;;;;;10.63;7.70;;;3.00;99.90;;;;;;4881992;29;20208;-74
2023/04/15 03:23:56;;;;;;;8.93;8.03;;;3.00;99.90;;;;;;4895747;29;20183;-74
2023/04/15 03:26:26;;;;;;;8.23;7.67;;;3.00;99.90;;;;;;4895526;29;20211;-74
2023/04/15 03:28:52;;;;;;;8.90;8.10;;;3.10;99.90;;;;;;4878748;29;20331;-75
2023/04/15 03:31:18;;;;;;;8.30;7.60;;;3.10;99.90;;;;;;4892170;29;20207;-75
2023/04/15 03:33:43;;;;;;;7.90;7.30;;;3.10;99.90;;;;;;4916652;29;20561;-74
2023/04/15 03:36:09;;;;;;;7.63;7.07;;;3.20;99.90;;;;;;4917757;29;20184;-75
2023/04/15 03:38:35;;;;;;;7.70;7.23;;;3.20;99.90;;;;;;4897600;29;20640;-75
2023/04/15 03:41:01;;;;;;;8.13;7.63;;;3.20;99.90;;;;;;4896532;29;20553;-75
2023/04/15 03:43:27;;;;;;;7.90;7.23;;;3.20;99.90;;;;;;4882090;29;20188;-75
2023/04/15 03:45:52;;;;;;;7.80;7.07;;;3.10;99.90;;;;;;4881720;29;20539;-74
2023/04/15 03:48:18;;;;;;;7.37;6.87;;;3.10;99.90;;;;;;4878577;29;20179;-74
2023/04/15 03:50:45;;;;;;;7.97;7.27;;;3.10;99.90;;;;;;4884830;29;20275;-74
2023/04/15 03:53:10;;;;;;;6.87;6.47;;;3.10;99.90;;;;;;4914366;29;20640;-75
2023/04/15 03:55:36;;;;;;;23.17;21.73;;;3.10;99.90;;;;;;4897417;29;20231;-75
2023/04/15 03:58:02;;;;;;;8.23;7.50;;;3.10;99.90;;;;;;4896718;29;20274;-75
2023/04/15 04:00:28;;;;;;;7.83;7.17;;;3.10;99.90;;;;;;4913217;29;20560;-74
2023/04/15 04:02:54;;;;;;;8.67;8.07;;;3.10;99.90;;;;;;4916528;29;20365;-75
2023/04/15 04:05:19;;;;;;;9.03;8.23;;;3.00;99.90;;;;;;4900646;29;20215;-75
2023/04/15 04:07:46;;;;;;;9.80;8.00;;;3.00;99.90;;;;;;4901843;29;20211;-75
2023/04/15 04:10:12;;;;;;;7.83;7.23;;;2.90;99.90;;;;;;4896771;29;20240;-75
2023/04/15 04:12:38;;;;;;;8.43;7.73;;;2.90;99.90;;;;;;4882671;29;20711;-74
2023/04/15 04:15:04;;;;;;;8.60;7.93;;;2.90;99.90;;;;;;4882933;29;20196;-74
2023/04/15 04:17:30;;;;;;;8.23;7.67;;;2.80;99.90;;;;;;4898671;29;20195;-74
2023/04/15 04:19:55;;;;;;;8.23;7.63;;;2.70;99.90;;;;;;4900626;29;20192;-76
2023/04/15 04:22:23;;;;;;;8.43;7.73;;;2.70;99.90;;;;;;4917694;29;20213;-74
2023/04/15 04:24:49;;;;;;;9.00;8.30;;;2.70;99.90;;;;;;4917877;29;20647;-74
2023/04/15 04:27:15;;;;;;;7.90;6.97;;;2.60;99.90;;;;;;4900683;29;20257;-74
2023/04/15 04:29:41;;;;;;;7.97;6.87;;;2.60;99.90;;;;;;4901113;29;20675;-76
2023/04/15 04:32:07;;;;;;;7.50;6.80;;;2.50;99.90;;;;;;4882915;29;20203;-74
2023/04/15 04:34:33;;;;;;;7.67;7.03;;;2.40;99.90;;;;;;4898886;29;20271;-74
2023/04/15 04:36:59;;;;;;;9.17;8.47;;;2.40;99.90;;;;;;4899504;29;20188;-73
2023/04/15 04:39:25;;;;;;;9.53;8.37;;;2.30;99.90;;;;;;4909177;29;20450;-72
2023/04/15 04:41:51;;;;;;;10.03;9.13;;;2.30;99.90;;;;;;4917128;29;20274;-72
2023/04/15 04:44:17;;;;;;;9.73;9.07;;;2.30;99.90;;;;;;4921446;29;20265;-72
2023/04/15 04:46:43;;;;;;;10.53;9.83;;;2.30;99.90;;;;;;4935815;29;20679;-72
2023/04/15 04:49:09;;;;;;;13.57;11.57;;;2.30;99.90;;;;;;4919063;29;20202;-72
2023/04/15 04:51:35;;;;;;;12.00;11.17;;;2.40;99.90;;;;;;4921915;29;20231;-72
2023/04/15 04:54:01;;;;;;;9.40;8.67;;;2.30;99.90;;;;;;4916937;29;20186;-72
2023/04/15 04:56:27;;;;;;;9.67;9.00;;;2.30;99.90;;;;;;4921086;29;20243;-73
2023/04/15 04:58:53;;;;;;;8.93;8.33;;;2.20;99.90;;;;;;4918396;29;20654;-72
2023/04/15 05:01:19;;;;;;;9.53;8.80;;;2.20;99.90;;;;;;4906087;29;20594;-72
2023/04/15 05:03:44;;;;;;;9.30;8.57;;;2.20;99.90;;;;;;4899771;29;20187;-72
2023/04/15 05:06:10;;;;;;;9.70;8.90;;;2.30;99.90;;;;;;4899999;29;20210;-72
2023/04/15 05:08:36;;;;;;;11.17;8.73;;;2.30;99.90;;;;;;4916668;29;20535;-71
2023/04/15 05:11:02;;;;;;;12.30;10.97;;;2.40;99.90;;;;;;4908156;29;20820;-72
2023/04/15 05:13:29;;;;;;;8.23;7.53;;;2.50;99.90;;;;;;4883061;29;20211;-72
2023/04/15 05:15:55;;;;;;;9.00;8.27;;;2.60;99.90;;;;;;4897727;29;20188;-72
2023/04/15 05:18:21;;;;;;;10.33;9.40;;;2.60;99.90;;;;;;4880821;29;20194;-72
2023/04/15 05:20:48;;;;;;;12.03;11.03;;;2.60;99.90;;;;;;4887671;29;20214;-72
2023/04/15 05:23:15;;;;;;;12.10;10.87;;;2.60;99.90;;;;;;4916158;29;20179;-72
2023/04/15 05:25:41;;;;;;;11.83;10.83;;;2.60;99.90;;;;;;4916780;29;20249;-72
2023/04/15 05:28:07;;;;;;;16.40;15.00;;;2.60;99.90;;;;;;4916252;29;20289;-72
2023/04/15 05:30:33;;;;;;;15.20;14.00;;;2.70;99.90;;;;;;4911409;29;20196;-73
2023/04/15 05:32:58;;;;;;;14.20;13.10;;;2.80;99.90;;;;;;4890307;29;20175;-72
2023/04/15 05:35:24;;;;;;;19.37;17.90;;;2.90;99.90;;;;;;4938118;29;20241;-72
2023/04/15 05:37:50;;;;;;;14.97;13.67;;;3.10;99.90;;;;;;4920606;29;20186;-72
2023/04/15 05:40:16;;;;;;;13.27;12.20;;;3.20;99.90;;;;;;4932581;29;20217;-72
2023/04/15 05:42:42;;;;;;;11.87;10.93;;;3.40;99.90;;;;;;4917504;29;20191;-72
2023/04/15 05:45:08;;;;;;;9.73;8.73;;;3.60;99.90;;;;;;4916725;29;20183;-72
2023/04/15 05:47:37;;;;;;;12.33;9.40;;;3.80;99.90;;;;;;4915654;29;20215;-72
2023/04/15 05:50:03;;;;;;;10.47;9.10;;;4.20;99.90;;;;;;4898636;29;20183;-72
2023/04/15 05:52:30;;;;;;;12.53;11.53;;;4.60;99.90;;;;;;4880246;29;20335;-72
2023/04/15 05:54:55;;;;;;;9.70;8.90;;;5.20;99.90;;;;;;4897484;29;20540;-73
2023/04/15 05:57:21;;;;;;;11.87;10.73;;;5.70;99.90;;;;;;4896811;29;20195;-73
2023/04/15 05:59:48;;;;;;;12.23;11.10;;;6.30;99.90;;;;;;4896509;29;20192;-73
2023/04/15 06:02:14;;;;;;;13.50;12.70;;;7.00;99.90;;;;;;4913925;29;20599;-73
2023/04/15 06:04:40;;;;;;;11.20;10.40;;;7.60;99.90;;;;;;4898766;29;20187;-71
2023/04/15 06:07:05;;;;;;;11.43;10.63;;;7.90;99.90;;;;;;4898560;29;20222;-73
2023/04/15 06:09:31;;;;;;;11.00;10.17;;;8.10;99.90;;;;;;4898574;29;20556;-72
2023/04/15 06:11:58;;;;;;;17.20;16.17;;;8.00;99.90;;;;;;4883381;29;20677;-72
2023/04/15 06:14:23;;;;;;;12.20;11.20;;;8.20;99.90;;;;;;4879638;29;20187;-73
2023/04/15 06:16:50;;;;;;;12.97;12.07;;;8.00;99.90;;;;;;4879643;29;20660;-73
2023/04/15 06:19:15;;;;;;;10.37;9.67;;;7.90;99.90;;;;;;4896290;29;20657;-72
2023/04/15 06:21:41;;;;;;;19.50;18.30;;;8.40;99.90;;;;;;4908707;29;20215;-74
2023/04/15 06:24:07;;;;;;;11.23;10.53;;;8.90;99.90;;;;;;4898476;29;20194;-74
2023/04/15 06:26:33;;;;;;;6.83;6.43;;;9.80;99.90;;;;;;4898259;29;20293;-74
2023/04/15 06:28:58;;;;;;;9.90;9.27;;;10.50;99.90;;;;;;4898064;29;20238;-73
2023/04/15 06:31:24;;;;;;;10.13;9.60;;;11.00;99.90;;;;;;4905161;29;20262;-73
2023/04/15 06:33:50;;;;;;;6.53;6.10;;;11.70;99.90;;;;;;4918774;29;20242;-73
2023/04/15 06:36:16;;;;;;;6.23;5.67;;;12.40;99.90;;;;;;4934889;29;20651;-73
2023/04/15 06:38:42;;;;;;;8.67;7.83;;;12.80;99.90;;;;;;4919831;29;20597;-74
2023/04/15 06:41:08;;;;;;;8.80;8.10;;;12.80;99.90;;;;;;4884654;29;20207;-74
2023/04/15 06:43:34;;;;;;;6.73;6.13;;;12.70;99.90;;;;;;4896472;29;20626;-74
2023/04/15 06:46:00;;;;;;;6.33;5.70;;;12.60;99.90;;;;;;4897030;29;20251;-74
2023/04/15 06:48:26;;;;;;;7.43;6.70;;;12.10;99.90;;;;;;4896220;29;20558;-75
2023/04/15 06:50:52;;;;;;;8.73;7.97;;;11.90;99.90;;;;;;4904777;29;20203;-74
2023/04/15 06:53:18;;;;;;;6.93;6.37;;;11.40;99.90;;;;;;4901266;29;20249;-74
2023/04/15 06:55:43;;;;;;;7.30;6.10;;;10.80;99.90;;;;;;4894808;29;20552;-74
2023/04/15 06:58:09;;;;;;;7.87;7.27;;;10.70;99.90;;;;;;4894061;29;20187;-74
2023/04/15 07:00:37;;;;;;;8.47;7.83;;;10.50;99.90;;;;;;4915884;29;20241;-74
2023/04/15 07:03:03;;;;;;;13.33;12.03;;;10.30;99.90;;;;;;4898024;29;20194;-75
2023/04/15 07:05:31;;;;;;;14.20;12.80;;;10.30;99.90;;;;;;4900522;29;20182;-74
2023/04/15 07:07:57;;;;;;;18.43;17.20;;;10.20;99.90;;;;;;4906618;29;20216;-74
2023/04/15 07:10:23;;;;;;;19.07;17.60;;;10.00;99.90;;;;;;4882921;29;20186;-74
2023/04/15 07:12:49;;;;;;;20.77;19.50;;;9.90;99.90;;;;;;4896829;29;20180;-74
2023/04/15 07:15:15;;;;;;;20.60;19.23;;;9.90;99.90;;;;;;4896303;29;20176;-74
2023/04/15 07:17:44;;;;;;;19.47;18.27;;;9.90;99.90;;;;;;4905814;29;20202;-75
2023/04/15 07:20:12;;;;;;;18.33;17.23;;;9.70;99.90;;;;;;4898261;29;20282;-74
2023/04/15 07:22:39;;;;;;;18.90;17.80;;;9.80;99.90;;;;;;4898141;29;20191;-75
2023/04/15 07:25:05;;;;;;;17.63;16.53;;;10.10;99.90;;;;;;4915170;29;20198;-75
2023/04/15 07:27:31;;;;;;;13.30;12.30;;;10.30;99.90;;;;;;4906296;29;20243;-73
2023/04/15 07:29:57;;;;;;;12.10;11.20;;;10.60;99.90;;;;;;4898271;29;20180;-74
2023/04/15 07:32:23;;;;;;;11.07;10.10;;;10.80;99.90;;;;;;4879226;29;20711;-74
2023/04/15 07:34:48;;;;;;;10.60;8.50;;;11.40;99.90;;;;;;4896894;29;20184;-74
2023/04/15 07:37:14;;;;;;;6.67;6.07;;;12.00;99.90;;;;;;4902833;29;20183;-75
2023/04/15 07:39:40;;;;;;;7.60;7.10;;;12.30;99.90;;;;;;4898567;29;20183;-72
2023/04/15 07:42:06;;;;;;;7.67;6.73;;;12.40;99.90;;;;;;4898143;29;20227;-72
2023/04/15 07:44:32;;;;;;;6.80;6.20;;;12.40;99.90;;;;;;4899346;29;20636;-73
2023/04/15 07:46:57;;;;;;;7.10;6.13;;;12.60;99.90;;;;;;4929118;29;20690;-73
2023/04/15 07:49:23;;;;;;;6.80;6.07;;;12.60;99.90;;;;;;4918192;29;20190;-73
2023/04/15 07:51:49;;;;;;;6.33;5.53;;;12.80;99.90;;;;;;4901210;29;20290;-73
2023/04/15 07:54:15;;;;;;;8.37;6.63;;;13.10;99.90;;;;;;4900808;29;20203;-73
2023/04/15 07:56:41;;;;;;;8.67;7.90;;;13.30;99.90;;;;;;4899362;29;20222;-73
2023/04/15 07:59:08;;;;;;;8.67;7.83;;;13.00;99.90;;;;;;4916806;29;20201;-74
2023/04/15 08:01:35;;;;;;;9.90;9.00;;;13.50;99.90;;;;;;4919709;29;20304;-74
2023/04/15 08:04:01;;;;;;;9.83;8.93;;;14.10;99.90;;;;;;4917635;29;20187;-75
2023/04/15 08:06:27;;;;;;;8.00;7.30;;;14.90;99.90;;;;;;4917565;29;20247;-73
2023/04/15 08:08:54;;;;;;;13.77;12.77;;;15.30;99.90;;;;;;4916610;29;20188;-74
2023/04/15 08:11:20;;;;;;;16.83;15.57;;;15.70;99.90;;;;;;4900650;29;20710;-73
2023/04/15 08:13:46;;;;;;;12.13;11.13;;;16.00;99.90;;;;;;4916793;29;20239;-74
2023/04/15 08:16:17;;;;;;;8.20;7.40;;;16.40;98.20;;;;;;4899265;29;20239;-73
2023/04/15 08:18:43;;;;;;;6.53;6.03;;;16.40;96.90;;;;;;4916421;29;20183;-73
2023/04/15 08:21:10;;;;;;;6.20;5.60;;;16.50;97.30;;;;;;4918285;29;20287;-73
2023/04/15 08:23:36;;;;;;;7.80;5.30;;;16.70;95.30;;;;;;4915450;29;20271;-77
2023/04/15 08:26:02;;;;;;;6.63;5.33;;;16.00;95.40;;;;;;4911758;29;20192;-79
2023/04/15 08:28:28;;;;;;;9.10;5.30;;;16.50;95.20;;;;;;4901155;29;20198;-73
2023/04/15 08:30:54;;;;;;;6.67;5.80;;;17.00;95.00;;;;;;4935936;29;20218;-73
2023/04/15 08:33:20;;;;;;;7.70;6.00;;;17.40;94.10;;;;;;4917311;29;20268;-75
2023/04/15 08:35:46;;;;;;;6.50;5.90;;;17.70;92.70;;;;;;4917451;29;20671;-73
2023/04/15 08:38:11;;;;;;;5.77;5.33;;;17.40;92.30;;;;;;4908377;29;20187;-74
2023/04/15 08:40:42;;;;;;;5.67;5.13;;;17.00;93.20;;;;;;4904116;29;21175;-75
2023/04/15 08:43:14;;;;;;;9.90;6.33;;;16.40;94.20;;;;;;4921615;29;20326;-75
2023/04/15 08:45:40;;;;;;;7.13;5.57;;;16.00;95.00;;;;;;4931067;29;20190;-75
2023/04/15 08:48:08;;;;;;;6.27;5.47;;;16.10;94.80;;;;;;4921754;29;20233;-74
2023/04/15 08:50:34;;;;;;;5.10;4.70;;;16.10;95.20;;;;;;4915632;29;20211;-74
2023/04/15 08:53:00;;;;;;;6.17;5.47;;;15.80;95.90;;;;;;4900534;29;20201;-77
2023/04/15 08:55:32;;;;;;;8.17;5.67;;;15.70;96.00;;;;;;4918226;29;20179;-74
2023/04/15 08:57:58;;;;;;;6.40;5.80;;;15.90;95.10;;;;;;4916831;29;20266;-74
2023/04/15 09:00:25;;;;;;;5.73;5.30;;;16.30;95.70;;;;;;4905479;29;20183;-74
2023/04/15 09:02:51;;;;;;;5.77;5.27;;;16.50;95.80;;;;;;4916097;29;20199;-74
2023/04/15 09:05:17;;;;;;;9.33;4.90;;;16.50;95.40;;;;;;4915095;29;20715;-74
2023/04/15 09:07:43;;;;;;;5.03;4.83;;;16.90;95.20;;;;;;4914782;29;20715;-73
2023/04/15 09:10:09;;;;;;;5.97;5.47;;;17.00;95.20;;;;;;4900656;29;20207;-73
2023/04/15 09:12:35;;;;;;;7.37;6.17;;;17.30;94.80;;;;;;4917146;29;20210;-74
2023/04/15 09:15:02;;;;;;;7.00;6.43;;;17.40;95.00;;;;;;4912304;23;20231;-71
2023/04/15 09:17:31;;;;;;;6.67;5.97;;;17.10;94.40;;;;;;4897667;29;20203;-71
2023/04/15 09:20:12;;;;;;;11.93;5.27;;;16.60;94.60;;;;;;4914996;29;20191;-71
2023/04/15 09:22:38;;;;;;;7.23;6.20;;;16.70;95.10;;;;;;4914992;29;20194;-71
2023/04/15 09:25:25;;;;;;;6.43;5.30;;;17.10;95.00;;;;;;4914735;29;20298;-71
2023/04/15 09:28:01;;;;;;;6.47;5.87;;;17.10;93.40;;;;;;4915345;29;20590;-71
2023/04/15 09:30:27;;;;;;;6.20;5.70;;;16.90;92.90;;;;;;4899618;29;20293;-71
2023/04/15 09:32:54;;;;;;;5.67;5.17;;;16.10;94.30;;;;;;4899335;29;20183;-71
2023/04/15 09:35:21;;;;;;;6.00;5.07;;;15.60;94.50;;;;;;4915977;29;20229;-70
2023/04/15 09:37:48;;;;;;;5.10;4.60;;;15.80;94.90;;;;;;4915895;29;20183;-71
2023/04/15 09:40:29;;;;;;;6.37;5.80;;;15.90;93.80;;;;;;4916372;29;20223;-71
2023/04/15 09:42:56;;;;;;;6.43;5.90;;;15.90;95.30;;;;;;4916036;29;20222;-71
2023/04/15 09:45:22;;;;;;;6.17;5.70;;;16.00;94.70;;;;;;4916294;29;20203;-71
2023/04/15 09:47:50;;;;;;;5.73;5.43;;;16.40;94.50;;;;;;4915658;29;20250;-72
2023/04/15 09:50:16;;;;;;;5.60;5.13;;;17.50;95.00;;;;;;4899316;29;20209;-72
2023/04/15 09:52:43;;;;;;;5.37;4.87;;;17.90;91.50;;;;;;4899048;29;20738;-72
2023/04/15 09:55:10;;;;;;;5.90;4.73;;;17.80;91.20;;;;;;4899045;29;20202;-71
2023/04/15 09:57:37;;;;;;;6.20;4.83;;;18.00;91.30;;;;;;4915603;29;20187;-70
2023/04/15 10:00:04;;;;;;;5.07;4.57;;;17.60;90.10;;;;;;4915752;29;20190;-72
2023/04/15 10:02:30;;;;;;;5.97;5.47;;;17.60;90.60;;;;;;4915606;29;20225;-69
2023/04/15 10:04:57;;;;;;;5.27;4.87;;;17.40;91.30;;;;;;4898866;29;20214;-72
2023/04/15 10:07:24;;;;;;;7.23;6.67;;;17.60;91.00;;;;;;4915745;29;20211;-71
2023/04/15 10:09:50;;;;;;;6.80;6.27;;;17.60;91.50;;;;;;4915881;29;20208;-71
2023/04/15 10:12:17;;;;;;;7.70;6.90;;;17.50;90.80;;;;;;4915522;29;20250;-70
2023/04/15 10:14:43;;;;;;;7.43;6.40;;;17.10;92.50;;;;;;4897494;29;20286;-71
2023/04/15 10:17:11;;;;;;;9.53;8.33;;;17.00;91.60;;;;;;4884024;29;20228;-71
2023/04/15 10:19:37;;;;;;;10.03;8.97;;;17.10;93.70;;;;;;4897745;29;20215;-71
2023/04/15 10:22:03;;;;;;;7.53;6.80;;;17.10;92.90;;;;;;4907467;29;20187;-71
2023/04/15 10:24:33;;;;;;;7.97;7.17;;;17.10;92.30;;;;;;4901187;29;20277;-70
2023/04/15 10:27:02;;;;;;;7.50;6.80;;;17.00;91.50;;;;;;4915094;29;20242;-70
2023/04/15 10:29:29;;;;;;;6.90;6.40;;;17.20;91.10;;;;;;4898551;29;20185;-71
2023/04/15 10:31:55;;;;;;;8.07;7.33;;;17.40;91.40;;;;;;4914948;29;20666;-71
2023/04/15 10:34:23;;;;;;;10.20;7.30;;;17.10;92.30;;;;;;4898623;29;20277;-70
2023/04/15 10:36:49;;;;;;;6.97;6.20;;;16.60;93.10;;;;;;4915185;29;20207;-70
2023/04/15 10:39:33;;;;;;;6.87;6.27;;;16.30;92.80;;;;;;4898457;29;20251;-70
2023/04/15 10:42:05;;;;;;;6.97;6.30;;;16.50;92.60;;;;;;4898342;29;20187;-71
2023/04/15 10:44:31;;;;;;;9.03;6.87;;;16.40;93.80;;;;;;4898383;29;20621;-70
2023/04/15 10:46:57;;;;;;;7.83;6.73;;;16.50;92.50;;;;;;4897814;29;20270;-70
2023/04/15 10:49:25;;;;;;;5.93;5.50;;;16.60;92.50;;;;;;4898372;29;20183;-72
2023/04/15 10:51:55;;;;;;;6.20;4.90;;;16.40;90.60;;;;;;4915071;29;20191;-70
2023/04/15 10:54:24;;;;;;;6.60;5.77;;;16.70;90.60;;;;;;4898207;29;20231;-70
2023/04/15 10:57:02;;;;;;;6.77;6.17;;;16.80;87.00;;;;;;4897898;29;20207;-70
2023/04/15 10:59:35;;;;;;;7.13;5.53;;;17.10;88.40;;;;;;4898297;29;20186;-70
2023/04/15 11:02:03;;;;;;;7.63;5.63;;;17.00;85.50;;;;;;4915200;29;20187;-70
2023/04/15 11:04:53;;;;;;;6.23;5.67;;;17.00;87.20;;;;;;4915191;29;20218;-70
2023/04/15 11:07:38;;;;;;;6.20;5.50;;;16.70;87.90;;;;;;4890877;29;20707;-70
2023/04/15 11:10:13;;;;;;;6.03;5.50;;;17.00;87.90;;;;;;4898146;29;20191;-70
2023/04/15 11:12:39;;;;;;;5.63;5.20;;;16.90;86.30;;;;;;4899921;29;20179;-70
2023/04/15 11:15:31;;;;;;;5.63;5.23;;;16.90;87.50;;;;;;4918725;29;20282;-70
2023/04/15 11:17:58;;;;;;;6.03;5.37;;;16.80;87.90;;;;;;4918580;29;20541;-70
2023/04/15 11:20:25;;;;;;;6.17;5.63;;;16.60;88.10;;;;;;4902095;29;20332;-71
2023/04/15 11:22:53;;;;;;;6.73;5.70;;;16.20;88.20;;;;;;4901756;29;20242;-69
2023/04/15 11:25:37;;;;;;;6.07;5.47;;;15.90;88.80;;;;;;4901710;29;20608;-69
2023/04/15 11:28:04;;;;;;;5.93;5.30;;;15.70;90.10;;;;;;4901438;29;20313;-70
2023/04/15 11:30:32;;;;;;;6.43;5.50;;;15.60;90.60;;;;;;4918680;29;20194;-70
2023/04/15 11:33:02;;;;;;;8.77;5.43;;;15.50;90.80;;;;;;4901463;29;20183;-70
2023/04/15 11:35:29;;;;;;;9.00;5.80;;;15.40;90.50;;;;;;4918846;29;20206;-70
2023/04/15 11:37:55;;;;;;;6.27;5.70;;;15.40;90.60;;;;;;4901697;29;20195;-70
2023/04/15 11:40:26;;;;;;;5.80;5.40;;;15.70;91.10;;;;;;4918561;29;20287;-70
2023/04/15 11:43:15;;;;;;;6.83;5.53;;;16.10;91.90;;;;;;4901335;29;20187;-70
2023/04/15 11:45:53;;;;;;;8.97;5.80;;;16.60;90.60;;;;;;4918268;29;20703;-69
2023/04/15 11:48:20;;;;;;;5.70;5.20;;;16.80;88.40;;;;;;4901008;29;20221;-70
2023/04/15 11:51:02;;;;;;;6.57;5.43;;;16.90;87.10;;;;;;4918440;29;20206;-70
2023/04/15 11:53:45;;;;;;;5.77;5.13;;;17.00;87.00;;;;;;4918254;29;20242;-69
2023/04/15 11:56:22;;;;;;;5.40;5.03;;;17.30;88.60;;;;;;4918111;29;20237;-70
2023/04/15 11:58:53;;;;;;;5.80;5.30;;;17.30;86.90;;;;;;4917858;29;20202;-70
2023/04/15 12:01:19;;;;;;;6.83;6.23;;;16.90;88.00;;;;;;4901290;29;20187;-70
2023/04/15 12:03:47;;;;;;;5.83;5.43;;;16.40;88.60;;;;;;4917884;29;20266;-70
2023/04/15 12:06:21;;;;;;;5.83;5.43;;;16.40;89.10;;;;;;4917861;29;20302;-69
2023/04/15 12:08:47;;;;;;;5.70;5.13;;;16.70;89.40;;;;;;4917737;29;20190;-69
2023/04/15 12:11:14;;;;;;;6.57;5.97;;;16.70;88.40;;;;;;4918159;29;20556;-69
2023/04/15 12:13:44;;;;;;;6.63;6.17;;;16.30;89.00;;;;;;4919565;29;20237;-70
2023/04/15 12:16:11;;;;;;;6.33;5.83;;;15.70;90.90;;;;;;4919106;29;20301;-70
2023/04/15 12:18:37;;;;;;;6.30;5.80;;;15.50;92.70;;;;;;4900550;29;20754;-70
2023/04/15 12:21:10;;;;;;;6.53;5.80;;;15.60;92.70;;;;;;4917973;29;20575;-69
2023/04/15 12:23:37;;;;;;;5.70;5.20;;;15.70;91.60;;;;;;4917219;29;20186;-70
2023/04/15 12:26:06;;;;;;;5.70;4.50;;;15.50;90.00;;;;;;4900509;29;20207;-70
2023/04/15 12:28:35;;;;;;;6.23;5.63;;;15.50;88.20;;;;;;4916975;29;20762;-70
2023/04/15 12:31:12;;;;;;;5.67;5.27;;;15.50;83.50;;;;;;4900783;29;20266;-70
2023/04/15 12:33:38;;;;;;;5.87;5.50;;;15.40;82.30;;;;;;4917410;29;20186;-70
2023/04/15 12:36:04;;;;;;;5.23;4.83;;;15.40;84.00;;;;;;4917517;29;20200;-70
2023/04/15 12:38:30;;;;;;;6.73;5.77;;;15.10;87.50;;;;;;4917151;29;20393;-69
2023/04/15 12:40:57;;;;;;;7.87;6.70;;;14.80;87.30;;;;;;4917574;29;20198;-69
2023/04/15 12:43:23;;;;;;;9.43;6.90;;;14.50;85.80;;;;;;4917068;29;20762;-69
2023/04/15 12:45:49;;;;;;;6.40;5.70;;;14.20;89.60;;;;;;4917099;29;20298;-69
2023/04/15 12:48:15;;;;;;;9.10;8.30;;;13.60;90.90;;;;;;4916954;29;20305;-69
2023/04/15 12:50:40;;;;;;;9.23;8.63;;;13.20;90.70;;;;;;4917276;29;20315;-69
2023/04/15 12:53:06;;;;;;;9.60;8.80;;;13.00;92.50;;;;;;4917030;29;20187;-69
2023/04/15 12:55:32;;;;;;;8.83;8.37;;;12.80;90.50;;;;;;4916623;29;20289;-70
2023/04/15 12:57:58;;;;;;;7.37;6.87;;;12.80;88.50;;;;;;4916696;29;20179;-71
2023/04/15 13:00:23;;;;;;;7.57;6.90;;;12.90;84.90;;;;;;4917144;29;20269;-70
2023/04/15 13:02:49;;;;;;;8.87;8.07;;;13.00;85.50;;;;;;4917035;29;20201;-69
2023/04/15 13:05:16;;;;;;;5.00;4.70;;;13.10;87.20;;;;;;4916904;29;20203;-69
2023/04/15 13:07:41;;;;;;;5.17;4.87;;;13.10;82.90;;;;;;4916559;29;20211;-69
2023/04/15 13:10:08;;;;;;;5.10;4.70;;;13.00;83.10;;;;;;4900000;29;20537;-69
2023/04/15 13:12:36;;;;;;;4.13;3.90;;;13.00;83.00;;;;;;4916724;29;20660;-69
2023/04/15 13:15:05;;;;;;;8.93;8.30;;;12.90;83.00;;;;;;4916596;29;20282;-69
2023/04/15 13:17:31;;;;;;;8.10;7.67;;;12.80;88.30;;;;;;4916398;29;20569;-69
2023/04/15 13:19:57;;;;;;;7.50;6.90;;;12.90;90.80;;;;;;4916930;29;20188;-69
2023/04/15 13:22:22;;;;;;;8.90;8.40;;;12.90;90.40;;;;;;4899498;29;20550;-69
2023/04/15 13:24:48;;;;;;;8.13;7.57;;;12.90;88.10;;;;;;4916355;29;20270;-69
2023/04/15 13:27:14;;;;;;;8.37;7.87;;;13.00;88.00;;;;;;4899035;29;20211;-69
2023/04/15 13:29:40;;;;;;;6.97;6.50;;;13.10;87.90;;;;;;4899473;29;20190;-70
2023/04/15 13:32:06;;;;;;;6.70;6.30;;;13.20;86.10;;;;;;4899356;29;20233;-69
2023/04/15 13:34:31;;;;;;;4.60;3.73;;;13.30;86.70;;;;;;4915659;29;20683;-69
2023/04/15 13:36:57;;;;;;;3.93;3.60;;;13.30;80.90;;;;;;4913294;29;20207;-69
2023/04/15 13:39:23;;;;;;;4.40;4.20;;;13.10;83.50;;;;;;4902239;29;20598;-69
2023/04/15 13:41:49;;;;;;;4.40;4.20;;;13.00;85.20;;;;;;4897737;29;20183;-69
2023/04/15 13:44:14;;;;;;;5.57;5.07;;;13.00;85.40;;;;;;4915415;29;20202;-69
2023/04/15 13:46:41;;;;;;;4.23;4.03;;;13.20;86.70;;;;;;4916325;29;20214;-69
2023/04/15 13:49:07;;;;;;;4.10;3.90;;;13.00;84.60;;;;;;4915786;29;20674;-69
2023/04/15 13:51:35;;;;;;;7.37;6.90;;;12.70;84.80;;;;;;4915913;29;20269;-69
2023/04/15 13:54:01;;;;;;;8.80;8.50;;;12.50;86.60;;;;;;4898161;29;20206;-69
2023/04/15 13:56:28;;;;;;;7.77;7.37;;;12.50;87.50;;;;;;4909095;29;20222;-69
2023/04/15 13:58:57;;;;;;;9.33;8.83;;;12.60;87.00;;;;;;4934408;29;20194;-70
2023/04/15 14:01:24;;;;;;;9.30;8.80;;;12.70;87.80;;;;;;4917493;29;20238;-70
2023/04/15 14:03:50;;;;;;;8.27;7.87;;;12.80;87.90;;;;;;4919515;29;20179;-69
2023/04/15 14:06:16;;;;;;;7.77;7.27;;;13.00;87.90;;;;;;4898715;29;20204;-70
2023/04/15 14:08:41;;;;;;;6.47;5.97;;;13.10;85.90;;;;;;4898655;29;20190;-69
2023/04/15 14:11:07;;;;;;;4.47;4.23;;;13.10;86.60;;;;;;4918591;29;20191;-71
2023/04/15 14:42:45;;;;;;;6.67;6.43;;;12.80;89.60;;;;;;5168077;23;20244;-78
2023/04/15 14:45:11;;;;;;;6.03;5.73;;;12.70;90.60;;;;;;4944159;29;20181;-77
2023/04/15 14:47:37;;;;;;;4.10;4.00;;;12.60;91.00;;;;;;4943701;29;20768;-77
2023/04/15 14:50:03;;;;;;;4.27;3.90;;;12.60;91.40;;;;;;4932511;29;20198;-78
2023/04/15 14:52:37;;;;;;;4.03;3.83;;;12.50;92.50;;;;;;4935168;29;20278;-77
2023/04/15 14:55:09;;;;;;;4.40;4.20;;;12.60;92.40;;;;;;4928015;29;20191;-77
2023/04/15 14:57:40;;;;;;;7.03;6.63;;;12.60;92.70;;;;;;4914413;29;20202;-77
2023/04/15 15:00:07;;;;;;;8.67;8.20;;;12.60;93.40;;;;;;4926211;29;20192;-76
2023/04/15 15:02:33;;;;;;;10.40;9.90;;;12.80;94.10;;;;;;4903308;29;20235;-76
2023/04/15 15:05:00;;;;;;;9.27;8.87;;;12.90;94.20;;;;;;4913309;29;20240;-73
2023/04/15 15:07:26;;;;;;;7.30;7.00;;;13.00;94.10;;;;;;4899960;29;20683;-77
2023/04/15 15:09:53;;;;;;;5.77;5.47;;;13.00;93.70;;;;;;4896164;29;20194;-77
2023/04/15 15:12:18;;;;;;;6.33;6.03;;;12.90;93.10;;;;;;4912444;29;20206;-77
2023/04/15 15:14:44;;;;;;;6.33;6.00;;;13.00;93.80;;;;;;4932549;29;20193;-77
2023/04/15 15:17:10;;;;;;;5.93;5.63;;;13.00;93.90;;;;;;4915921;29;20186;-77
2023/04/15 15:19:36;;;;;;;5.50;5.20;;;13.00;93.80;;;;;;4909220;29;20190;-77
2023/04/15 15:22:02;;;;;;;5.80;5.50;;;12.90;93.60;;;;;;4913784;29;20211;-77
2023/04/15 15:24:28;;;;;;;7.30;6.90;;;12.70;93.50;;;;;;4912430;29;20567;-77
2023/04/15 15:26:54;;;;;;;11.73;10.93;;;12.50;94.10;;;;;;4925467;29;20301;-76
2023/04/15 15:29:20;;;;;;;16.47;15.57;;;12.40;94.70;;;;;;4907752;29;20223;-77
2023/04/15 15:31:46;;;;;;;20.17;19.27;;;12.40;95.60;;;;;;4919424;29;20201;-77
2023/04/15 15:34:11;;;;;;;17.43;16.53;;;12.40;96.50;;;;;;4912686;29;20283;-76
2023/04/15 15:36:37;;;;;;;19.70;18.50;;;12.40;95.80;;;;;;4911549;29;20179;-76
2023/04/15 15:39:03;;;;;;;24.67;23.27;;;12.40;95.80;;;;;;4911954;29;20238;-75
2023/04/15 15:41:29;;;;;;;25.73;24.27;;;12.30;96.00;;;;;;4897498;29;20314;-76
2023/04/15 15:43:55;;;;;;;25.87;24.27;;;12.20;96.40;;;;;;4914601;29;20190;-76
2023/04/15 15:46:22;;;;;;;22.30;21.10;;;12.20;96.90;;;;;;4914192;29;20180;-77
2023/04/15 15:48:48;;;;;;;15.33;14.63;;;12.10;97.50;;;;;;4897175;29;20187;-77
2023/04/15 15:51:14;;;;;;;12.67;12.13;;;12.00;98.70;;;;;;4897172;29;20204;-77
2023/04/15 15:53:40;;;;;;;10.50;10.00;;;12.00;99.10;;;;;;4878543;29;20187;-76
2023/04/15 15:56:06;;;;;;;9.63;9.13;;;12.00;99.90;;;;;;4895679;29;20564;-77
2023/04/15 15:58:32;;;;;;;7.83;7.53;;;12.00;99.90;;;;;;4897121;29;20194;-75
2023/04/15 16:00:59;;;;;;;8.63;8.13;;;11.90;99.90;;;;;;4916168;29;20187;-74
2023/04/15 16:03:25;;;;;;;17.27;16.47;;;11.80;99.90;;;;;;4902291;29;20235;-75
2023/04/15 16:05:51;;;;;;;12.37;11.87;;;11.80;99.90;;;;;;4900582;29;20270;-76
2023/04/15 16:08:16;;;;;;;32.77;31.07;;;11.70;99.90;;;;;;4917248;29;20225;-75
2023/04/15 16:10:44;;;;;;;21.17;20.17;;;11.50;99.90;;;;;;4887601;29;20184;-75
2023/04/15 16:13:10;;;;;;;11.47;10.90;;;11.30;99.90;;;;;;4881855;29;20208;-75
2023/04/15 16:15:36;;;;;;;16.30;15.20;;;11.00;99.90;;;;;;4901444;29;20189;-75